Time;durP1;ratioP1;P1;durP2;ratioP2;P2;SDS_P1;SDS_P2;PMS_P1;PMS_P2;Temp;Humidity;BMP_temperature;BMP_pressure;BME280_temperature;BME280_humidity;BME280_pressure;Samples;Min_cycle;Max_cycle;Signal;HPM_P1;HPM_P2
2022/01/18 00:02:16;;;;;;;6.30;1.80;;;2.60;99.90;;;;;;5040464;28;20232;-73
2022/01/18 00:05:06;;;;;;;6.73;1.83;;;2.70;99.90;;;;;;5061637;28;20928;-73
2022/01/18 00:07:54;;;;;;;7.73;2.30;;;2.60;99.90;;;;;;5058636;28;20220;-74
2022/01/18 00:10:43;;;;;;;5.00;1.60;;;2.60;99.90;;;;;;5056338;28;20208;-74
2022/01/18 00:13:42;;;;;;;7.70;2.77;;;2.60;99.90;;;;;;5053984;28;20257;-75
2022/01/18 00:16:38;;;;;;;9.00;2.80;;;2.60;99.90;;;;;;5055756;28;20224;-75
2022/01/18 00:19:27;;;;;;;7.60;1.80;;;2.70;99.90;;;;;;5044184;28;20259;-74
2022/01/18 00:22:16;;;;;;;6.17;2.00;;;2.70;99.90;;;;;;5042358;28;20247;-75
2022/01/18 00:25:05;;;;;;;6.17;1.90;;;2.70;99.90;;;;;;5042989;28;20227;-74
2022/01/18 00:27:54;;;;;;;7.77;2.00;;;2.70;99.90;;;;;;5056800;28;20250;-73
2022/01/18 00:39:58;;;;;;;6.57;1.83;;;2.70;99.90;;;;;;5059330;28;20232;-74
2022/01/18 00:42:46;;;;;;;7.10;2.50;;;2.80;99.90;;;;;;5042979;28;21486;-73
2022/01/18 00:45:35;;;;;;;8.10;1.70;;;2.70;99.90;;;;;;5040384;28;20792;-75
2022/01/18 00:48:24;;;;;;;6.27;2.00;;;2.70;99.90;;;;;;5050772;28;20224;-74
2022/01/18 00:51:15;;;;;;;7.97;1.80;;;2.70;99.90;;;;;;5058254;28;20278;-75
2022/01/18 00:54:04;;;;;;;6.27;1.80;;;2.70;99.90;;;;;;5055915;28;20220;-74
2022/01/18 00:56:54;;;;;;;7.27;1.77;;;2.70;99.90;;;;;;5054402;28;20224;-73
2022/01/18 00:59:44;;;;;;;7.87;2.27;;;2.70;99.90;;;;;;5059207;28;20216;-74
2022/01/18 01:02:37;;;;;;;10.03;2.07;;;2.70;99.90;;;;;;5042766;28;20228;-75
2022/01/18 01:05:26;;;;;;;4.83;2.07;;;2.60;99.90;;;;;;5055080;28;20227;-73
2022/01/18 01:08:16;;;;;;;7.67;2.77;;;2.50;99.90;;;;;;5055863;28;20243;-75
2022/01/18 01:11:06;;;;;;;8.13;2.57;;;2.50;99.90;;;;;;5054042;28;20220;-73
2022/01/18 01:13:58;;;;;;;7.03;2.83;;;2.50;99.90;;;;;;5054859;28;20756;-72
2022/01/18 01:17:01;;;;;;;9.70;2.80;;;2.40;99.90;;;;;;5056018;28;20231;-72
2022/01/18 01:32:10;;;;;;;7.10;2.40;;;2.50;99.90;;;;;;5058916;28;20220;-73
2022/01/18 01:35:41;;;;;;;8.63;3.03;;;2.20;99.90;;;;;;5024308;28;20224;-73
2022/01/18 01:44:47;;;;;;;12.43;3.47;;;2.20;99.90;;;;;;5056106;28;20216;-74
2022/01/18 01:47:37;;;;;;;11.97;3.53;;;2.10;99.90;;;;;;5054132;28;20216;-73
2022/01/18 01:50:38;;;;;;;7.93;3.20;;;2.10;99.90;;;;;;5038741;28;20224;-74
2022/01/18 01:53:27;;;;;;;9.77;3.77;;;1.90;99.90;;;;;;5054303;28;20220;-73
2022/01/18 01:56:15;;;;;;;10.27;4.07;;;1.80;99.90;;;;;;5038350;28;20225;-73
2022/01/18 01:59:06;;;;;;;8.47;3.90;;;1.90;99.90;;;;;;5040024;28;20232;-73
2022/01/18 02:01:55;;;;;;;9.93;4.43;;;2.00;99.90;;;;;;5037411;28;20223;-72
2022/01/18 02:04:44;;;;;;;7.50;3.97;;;2.00;99.90;;;;;;5054612;28;20354;-72
2022/01/18 02:07:33;;;;;;;11.50;4.00;;;1.80;99.90;;;;;;5039910;28;20224;-73
2022/01/18 02:10:22;;;;;;;12.13;4.43;;;1.70;99.90;;;;;;5038654;28;20231;-72
2022/01/18 02:13:12;;;;;;;11.97;4.27;;;1.70;99.90;;;;;;5049109;28;20225;-72
2022/01/18 02:21:45;;;;;;;10.70;4.57;;;1.60;99.90;;;;;;5039024;28;20247;-74
2022/01/18 02:22:34;;;;;;;8.70;4.10;;;1.50;99.90;;;;;;5040377;28;20725;-73
2022/01/18 02:25:23;;;;;;;14.23;4.73;;;1.50;99.90;;;;;;5053876;28;20228;-73
2022/01/18 02:28:13;;;;;;;9.47;4.73;;;1.30;99.90;;;;;;5037050;28;20228;-75
2022/01/18 02:31:01;;;;;;;13.10;5.30;;;1.30;99.90;;;;;;5051357;28;20231;-73
2022/01/18 02:33:50;;;;;;;9.37;4.60;;;1.30;99.90;;;;;;5039881;28;20224;-72
2022/01/18 02:36:40;;;;;;;12.70;4.80;;;1.20;99.90;;;;;;5057926;28;20224;-73
2022/01/18 02:39:30;;;;;;;14.10;6.03;;;1.00;99.90;;;;;;5053465;28;20239;-73
2022/01/18 02:42:26;;;;;;;15.13;5.03;;;1.10;99.90;;;;;;5055620;28;20313;-72
2022/01/18 02:45:15;;;;;;;13.63;5.90;;;1.00;99.90;;;;;;5035509;28;20220;-74
2022/01/18 02:48:05;;;;;;;13.80;5.73;;;1.10;99.90;;;;;;5051027;28;20223;-74
2022/01/18 02:50:54;;;;;;;12.40;5.00;;;1.10;99.90;;;;;;5039026;28;20224;-73
2022/01/18 02:54:01;;;;;;;10.97;5.37;;;1.10;99.90;;;;;;5056925;28;20217;-74
2022/01/18 02:56:55;;;;;;;11.40;5.17;;;1.00;99.90;;;;;;5052007;28;21010;-72
2022/01/18 02:59:48;;;;;;;14.90;5.53;;;1.00;99.90;;;;;;5039500;28;20243;-73
2022/01/18 03:05:54;;;;;;;13.67;5.57;;;1.20;99.90;;;;;;5000760;28;20796;-73
2022/01/18 03:08:43;;;;;;;11.17;4.63;;;0.80;99.90;;;;;;5048967;28;20216;-74
2022/01/18 03:11:31;;;;;;;13.50;5.23;;;0.70;99.90;;;;;;5051566;28;20227;-73
2022/01/18 03:14:21;;;;;;;11.77;5.40;;;0.70;99.90;;;;;;5047483;28;21258;-72
2022/01/18 03:17:10;;;;;;;14.53;5.73;;;0.90;99.90;;;;;;5054199;28;20235;-72
2022/01/18 03:19:58;;;;;;;16.87;5.60;;;0.80;99.90;;;;;;5036490;28;20246;-72
2022/01/18 03:22:49;;;;;;;11.93;5.07;;;0.80;99.90;;;;;;5055573;28;20272;-73
2022/01/18 03:25:51;;;;;;;12.93;5.50;;;0.70;99.90;;;;;;5039576;28;20221;-73
2022/01/18 03:28:40;;;;;;;11.87;5.20;;;0.90;99.90;;;;;;5037392;28;20672;-73
2022/01/18 03:31:30;;;;;;;11.57;5.13;;;0.90;99.90;;;;;;5050577;28;20240;-74
2022/01/18 03:34:19;;;;;;;14.87;5.23;;;0.90;99.90;;;;;;5035002;28;20318;-74
2022/01/18 03:37:08;;;;;;;11.27;5.07;;;0.80;99.90;;;;;;5050967;28;20901;-73
2022/01/18 03:39:56;;;;;;;10.33;4.80;;;0.80;99.90;;;;;;5036422;28;20228;-74
2022/01/18 03:42:46;;;;;;;11.67;4.60;;;0.80;99.90;;;;;;5037029;28;20233;-73
2022/01/18 03:45:41;;;;;;;12.47;4.87;;;0.80;99.90;;;;;;5053114;28;20319;-73
2022/01/18 03:48:34;;;;;;;9.77;4.43;;;0.80;99.90;;;;;;5038625;28;20212;-74
2022/01/18 03:51:23;;;;;;;10.93;4.73;;;0.80;99.90;;;;;;5037542;28;20228;-74
2022/01/18 03:54:13;;;;;;;11.83;4.67;;;0.80;99.90;;;;;;5038878;28;20317;-74
2022/01/18 03:57:02;;;;;;;9.87;4.70;;;0.80;99.90;;;;;;5032446;28;20271;-74
2022/01/18 03:59:51;;;;;;;15.57;6.23;;;0.80;99.90;;;;;;5037169;28;20225;-73
2022/01/18 04:02:40;;;;;;;11.07;4.80;;;0.80;99.90;;;;;;5038960;28;20212;-73
2022/01/18 04:05:30;;;;;;;11.97;4.70;;;0.90;99.90;;;;;;5036730;28;20224;-73
2022/01/18 04:08:20;;;;;;;10.47;4.70;;;0.80;99.90;;;;;;5053499;28;20289;-74
2022/01/18 04:11:09;;;;;;;11.73;4.67;;;0.60;99.90;;;;;;5041264;28;20224;-73
2022/01/18 04:13:57;;;;;;;11.03;4.63;;;0.80;99.90;;;;;;5052090;28;20239;-74
2022/01/18 04:17:00;;;;;;;12.43;5.13;;;0.60;99.90;;;;;;5056786;28;20216;-74
2022/01/18 04:26:54;;;;;;;12.40;4.87;;;0.70;99.90;;;;;;5054950;28;20236;-73
2022/01/18 04:29:18;;;;;;;12.00;4.67;;;0.50;99.90;;;;;;5045562;28;20221;-74
2022/01/18 04:32:07;;;;;;;9.97;4.40;;;0.40;99.90;;;;;;5052399;28;20225;-75
2022/01/18 04:34:57;;;;;;;10.37;4.13;;;0.50;99.90;;;;;;5055845;28;20216;-73
2022/01/18 04:37:45;;;;;;;15.70;4.90;;;0.60;99.90;;;;;;5053799;28;20228;-73
2022/01/18 04:40:39;;;;;;;11.90;5.03;;;0.70;99.90;;;;;;5054328;28;20236;-74
2022/01/18 04:43:43;;;;;;;9.00;4.07;;;0.80;99.90;;;;;;5044403;28;20221;-71
2022/01/18 04:49:38;;;;;;;9.23;3.97;;;0.80;99.90;;;;;;5043121;28;20692;-73
2022/01/18 04:52:26;;;;;;;9.70;3.77;;;0.90;99.90;;;;;;5045217;28;20228;-73
2022/01/18 04:55:17;;;;;;;7.77;3.83;;;1.00;99.90;;;;;;5033161;28;20236;-75
2022/01/18 04:58:08;;;;;;;9.77;3.40;;;0.90;99.90;;;;;;5043310;28;20216;-73
2022/01/18 05:00:59;;;;;;;10.57;3.83;;;0.90;99.90;;;;;;5057902;28;20235;-74
2022/01/18 05:03:48;;;;;;;8.00;3.10;;;1.00;99.90;;;;;;5056463;28;20229;-73
2022/01/18 05:06:37;;;;;;;11.10;3.30;;;0.90;99.90;;;;;;5059865;28;20224;-75
2022/01/18 05:09:26;;;;;;;11.53;3.60;;;1.00;99.90;;;;;;5060441;28;20278;-75
2022/01/18 05:12:22;;;;;;;12.33;3.70;;;1.10;99.90;;;;;;5042461;28;20219;-74
2022/01/18 05:15:35;;;;;;;12.60;3.40;;;1.20;99.90;;;;;;5041848;28;20263;-73
2022/01/18 05:21:32;;;;;;;7.27;2.53;;;1.20;99.90;;;;;;5056832;28;20219;-72
2022/01/18 05:24:20;;;;;;;8.43;2.90;;;1.20;99.90;;;;;;5038235;28;20231;-73
2022/01/18 05:27:09;;;;;;;8.70;3.37;;;1.20;99.90;;;;;;5038568;28;20301;-73
2022/01/18 05:29:58;;;;;;;9.63;2.73;;;1.10;99.90;;;;;;5058034;28;20755;-73
2022/01/18 05:32:48;;;;;;;7.00;2.73;;;1.10;99.90;;;;;;5053031;28;20224;-72
2022/01/18 05:35:37;;;;;;;12.83;3.00;;;1.10;99.90;;;;;;5050459;28;20228;-72
2022/01/18 05:38:25;;;;;;;9.90;2.97;;;1.10;99.90;;;;;;5042419;28;20242;-73
2022/01/18 05:41:14;;;;;;;10.17;3.37;;;1.10;99.90;;;;;;5050592;28;20223;-74
2022/01/18 05:44:04;;;;;;;8.50;2.87;;;1.00;99.90;;;;;;5034917;28;20224;-74
2022/01/18 05:46:53;;;;;;;10.10;2.60;;;1.00;99.90;;;;;;5051150;28;20220;-74
2022/01/18 05:49:43;;;;;;;7.37;2.93;;;1.00;99.90;;;;;;5054213;28;20225;-74
2022/01/18 05:52:32;;;;;;;9.37;3.10;;;1.00;99.90;;;;;;5040379;28;20299;-74
2022/01/18 05:55:20;;;;;;;8.43;3.00;;;0.90;99.90;;;;;;5046040;28;20227;-74
2022/01/18 05:58:09;;;;;;;10.33;2.93;;;1.00;99.90;;;;;;5048163;28;20224;-75
2022/01/18 06:00:57;;;;;;;11.43;3.23;;;0.90;99.90;;;;;;5046264;28;20586;-74
2022/01/18 06:04:04;;;;;;;6.93;2.93;;;0.80;99.90;;;;;;5047573;28;20225;-75
2022/01/18 06:06:54;;;;;;;11.07;2.83;;;0.90;99.90;;;;;;5048120;28;20220;-74
2022/01/18 06:09:42;;;;;;;8.87;2.77;;;0.90;99.90;;;;;;5033559;28;20703;-74
2022/01/18 06:12:32;;;;;;;10.13;3.00;;;0.90;99.90;;;;;;5049985;28;20225;-73
2022/01/18 06:15:21;;;;;;;9.90;2.60;;;0.90;99.90;;;;;;5047452;28;21255;-74
2022/01/18 06:18:10;;;;;;;6.20;2.57;;;0.80;99.90;;;;;;5034652;28;20212;-73
2022/01/18 06:20:59;;;;;;;8.93;3.00;;;0.80;99.90;;;;;;5048031;28;20232;-74
2022/01/18 06:23:50;;;;;;;7.97;3.00;;;0.80;99.90;;;;;;5037989;28;20727;-73
2022/01/18 06:26:39;;;;;;;10.33;3.00;;;0.80;99.90;;;;;;5041763;28;20223;-73
2022/01/18 06:29:27;;;;;;;14.03;3.27;;;0.80;99.90;;;;;;5054552;28;20562;-74
2022/01/18 06:32:16;;;;;;;6.83;2.93;;;0.90;99.90;;;;;;5057060;28;20231;-74
2022/01/18 06:35:06;;;;;;;9.63;2.97;;;0.90;99.90;;;;;;5039978;28;20758;-74
2022/01/18 06:37:54;;;;;;;9.33;2.80;;;0.90;99.90;;;;;;5057659;28;20231;-74
2022/01/18 06:40:45;;;;;;;7.57;2.77;;;0.90;99.90;;;;;;5042346;28;20704;-74
2022/01/18 06:43:34;;;;;;;9.07;2.70;;;0.90;99.90;;;;;;5041957;28;20285;-74
2022/01/18 06:46:23;;;;;;;6.23;2.63;;;0.90;99.90;;;;;;5053123;28;20234;-75
2022/01/18 06:49:12;;;;;;;8.73;3.13;;;0.90;99.90;;;;;;5042279;28;20325;-74
2022/01/18 06:52:00;;;;;;;10.77;3.93;;;0.90;99.90;;;;;;5055359;28;20231;-74
2022/01/18 06:54:49;;;;;;;10.80;3.23;;;0.90;99.90;;;;;;5041252;28;20306;-73
2022/01/18 06:57:39;;;;;;;8.00;3.13;;;0.90;99.90;;;;;;5041005;28;20227;-74
2022/01/18 07:00:27;;;;;;;9.97;3.10;;;0.90;99.90;;;;;;5051294;28;20224;-73
2022/01/18 07:03:17;;;;;;;7.40;2.90;;;0.90;99.90;;;;;;5055726;28;20722;-74
2022/01/18 07:06:06;;;;;;;11.63;4.87;;;0.90;99.90;;;;;;5053438;28;20219;-73
2022/01/18 07:08:55;;;;;;;10.63;3.63;;;1.00;99.90;;;;;;5057716;28;20799;-73
2022/01/18 07:11:43;;;;;;;7.50;2.90;;;1.00;99.90;;;;;;5056560;28;20220;-75
2022/01/18 07:14:35;;;;;;;13.03;3.30;;;1.00;99.90;;;;;;5056756;28;20297;-73
2022/01/18 07:17:23;;;;;;;10.13;3.00;;;1.00;99.90;;;;;;5055215;28;20729;-74
2022/01/18 07:20:12;;;;;;;8.87;2.80;;;1.10;99.90;;;;;;5041755;28;20251;-74
2022/01/18 07:23:01;;;;;;;7.80;3.17;;;1.20;99.90;;;;;;5052250;28;20228;-72
2022/01/18 07:25:52;;;;;;;9.67;3.10;;;1.10;99.90;;;;;;5039671;28;20220;-71
2022/01/18 07:28:41;;;;;;;8.97;2.77;;;1.20;99.90;;;;;;5040341;28;20557;-72
2022/01/18 07:31:35;;;;;;;8.37;2.70;;;1.30;99.90;;;;;;5043240;28;20228;-73
2022/01/18 07:34:24;;;;;;;8.00;2.90;;;1.20;99.90;;;;;;5038928;28;20782;-74
2022/01/18 07:37:13;;;;;;;8.97;3.00;;;1.30;99.90;;;;;;5036618;28;20251;-74
2022/01/18 07:40:09;;;;;;;11.30;2.50;;;1.40;99.90;;;;;;5054584;28;20216;-74
2022/01/18 07:43:00;;;;;;;9.37;3.00;;;1.40;99.90;;;;;;5057952;28;20566;-74
2022/01/18 07:45:51;;;;;;;9.00;3.13;;;1.40;99.90;;;;;;5042517;28;20215;-73
2022/01/18 07:48:41;;;;;;;9.10;3.03;;;1.50;99.90;;;;;;5045305;28;20255;-71
2022/01/18 07:51:33;;;;;;;10.20;2.50;;;1.50;99.90;;;;;;5060844;28;20243;-72
2022/01/18 07:54:22;;;;;;;7.70;2.97;;;1.50;99.90;;;;;;5055021;28;20216;-74
2022/01/18 07:57:12;;;;;;;6.50;2.47;;;1.60;99.90;;;;;;5043427;28;20233;-74
2022/01/18 08:00:01;;;;;;;9.50;2.73;;;1.60;99.90;;;;;;5045397;28;20235;-74
2022/01/18 08:03:01;;;;;;;9.23;2.97;;;1.70;99.90;;;;;;5059629;28;20231;-74
2022/01/18 08:05:52;;;;;;;13.27;3.10;;;1.80;99.90;;;;;;5046460;28;20248;-73
2022/01/18 08:08:40;;;;;;;7.80;3.17;;;1.80;99.90;;;;;;5048994;28;20295;-74
2022/01/18 08:11:29;;;;;;;8.60;3.50;;;1.90;99.90;;;;;;5044213;28;20227;-73
2022/01/18 08:14:17;;;;;;;32.07;9.87;;;1.90;99.90;;;;;;5061147;28;20584;-74
2022/01/18 08:17:06;;;;;;;13.93;6.57;;;2.00;99.90;;;;;;5048194;28;20263;-74
2022/01/18 08:19:55;;;;;;;8.33;3.00;;;2.00;99.90;;;;;;5060859;28;20295;-74
2022/01/18 08:22:45;;;;;;;11.53;2.93;;;2.00;99.90;;;;;;5056263;28;20217;-73
2022/01/18 08:25:35;;;;;;;10.47;3.00;;;2.10;99.90;;;;;;5058276;28;20243;-75
2022/01/18 08:28:24;;;;;;;6.50;2.70;;;2.20;99.90;;;;;;5044950;28;20307;-75
2022/01/18 08:31:13;;;;;;;7.53;2.50;;;2.40;99.90;;;;;;5042996;28;20658;-74
2022/01/18 08:34:01;;;;;;;9.23;2.60;;;2.50;99.90;;;;;;5056619;28;20777;-75
2022/01/18 08:36:54;;;;;;;7.93;2.70;;;2.50;99.90;;;;;;5055641;28;20916;-74
2022/01/18 08:39:44;;;;;;;11.03;2.90;;;2.50;99.90;;;;;;5055821;28;20708;-77
2022/01/18 08:42:33;;;;;;;13.30;2.90;;;2.40;99.90;;;;;;5045067;28;20713;-75
2022/01/18 08:45:22;;;;;;;8.97;3.67;;;2.40;99.90;;;;;;5056403;28;20279;-75
2022/01/18 08:48:11;;;;;;;6.80;2.73;;;2.40;99.90;;;;;;5052967;28;20227;-74
2022/01/18 08:51:00;;;;;;;8.23;3.00;;;2.40;99.90;;;;;;5044231;28;20700;-75
2022/01/18 08:53:50;;;;;;;10.30;3.10;;;2.40;99.90;;;;;;5056173;28;20235;-73
2022/01/18 08:56:40;;;;;;;8.97;3.13;;;2.50;99.90;;;;;;5038400;28;20232;-73
2022/01/18 08:59:44;;;;;;;9.03;3.13;;;2.50;99.90;;;;;;5054664;28;20223;-73
2022/01/18 09:02:33;;;;;;;9.27;2.87;;;2.50;99.90;;;;;;5055061;28;20227;-73
2022/01/18 09:05:23;;;;;;;9.17;3.10;;;2.60;99.90;;;;;;5055431;28;20238;-73
2022/01/18 09:08:13;;;;;;;9.67;3.03;;;2.60;99.90;;;;;;5054898;28;20216;-74
2022/01/18 09:11:02;;;;;;;9.00;3.00;;;2.70;99.90;;;;;;5037108;28;20217;-75
2022/01/18 09:13:53;;;;;;;12.07;5.00;;;2.80;99.90;;;;;;5041310;28;20217;-75
2022/01/18 09:16:42;;;;;;;9.27;2.77;;;2.80;99.90;;;;;;5054254;28;20608;-74
2022/01/18 09:19:34;;;;;;;9.23;3.27;;;2.80;99.90;;;;;;5037455;28;20246;-74
2022/01/18 09:22:23;;;;;;;7.03;3.10;;;2.70;99.90;;;;;;5053780;28;20236;-75
2022/01/18 09:25:14;;;;;;;10.30;3.00;;;2.80;99.90;;;;;;5043163;28;20585;-75
2022/01/18 09:28:03;;;;;;;11.17;3.03;;;2.70;99.90;;;;;;5054246;28;20232;-75
2022/01/18 09:30:54;;;;;;;10.47;3.40;;;2.70;99.90;;;;;;5040749;28;20635;-74
2022/01/18 09:33:43;;;;;;;12.50;2.73;;;2.80;99.90;;;;;;5056235;28;20208;-73
2022/01/18 09:36:32;;;;;;;13.23;3.40;;;2.80;99.90;;;;;;5056391;28;20226;-74
2022/01/18 09:39:21;;;;;;;11.20;3.17;;;2.80;99.90;;;;;;5053381;28;20213;-72
2022/01/18 09:42:13;;;;;;;10.80;3.40;;;2.90;99.90;;;;;;5054385;28;20220;-74
2022/01/18 09:45:05;;;;;;;9.17;3.33;;;2.90;99.90;;;;;;5038050;28;20228;-75
2022/01/18 09:47:59;;;;;;;12.57;3.10;;;2.80;99.90;;;;;;5049067;28;20220;-74
2022/01/18 09:50:48;;;;;;;10.00;3.60;;;2.80;99.90;;;;;;5055370;28;20307;-74
2022/01/18 09:53:37;;;;;;;10.43;3.63;;;2.80;99.90;;;;;;5040919;28;20232;-75
2022/01/18 09:56:26;;;;;;;12.63;4.33;;;2.80;99.90;;;;;;5053614;28;20220;-73
2022/01/18 09:59:15;;;;;;;11.27;3.90;;;2.80;99.90;;;;;;5056304;28;20232;-74
2022/01/18 10:02:06;;;;;;;10.90;3.47;;;2.90;99.90;;;;;;5052834;28;20221;-76
2022/01/18 10:04:59;;;;;;;9.47;3.90;;;3.00;99.90;;;;;;5043402;28;20242;-74
2022/01/18 10:07:56;;;;;;;11.83;4.07;;;3.00;99.90;;;;;;5052412;28;20220;-73
2022/01/18 10:10:48;;;;;;;12.47;4.07;;;2.90;99.90;;;;;;5053525;28;20213;-74
2022/01/18 10:13:37;;;;;;;8.70;3.70;;;3.00;99.90;;;;;;5042062;28;20220;-75
2022/01/18 10:16:25;;;;;;;8.97;3.33;;;3.00;99.90;;;;;;5040093;28;20236;-75
2022/01/18 10:19:29;;;;;;;10.43;4.13;;;2.90;99.90;;;;;;5057756;28;20267;-75
2022/01/18 10:22:27;;;;;;;9.20;3.97;;;3.00;99.90;;;;;;5050677;28;20265;-74
2022/01/18 10:25:17;;;;;;;8.63;3.57;;;3.10;99.90;;;;;;5045707;28;20229;-75
2022/01/18 10:28:06;;;;;;;10.53;3.70;;;3.00;99.90;;;;;;5050609;28;20221;-74
2022/01/18 10:30:55;;;;;;;13.30;3.63;;;3.00;99.90;;;;;;5040331;28;20585;-75
2022/01/18 10:33:57;;;;;;;14.33;3.43;;;3.10;99.90;;;;;;5058463;28;20223;-73
2022/01/18 10:37:01;;;;;;;7.87;3.53;;;3.20;99.90;;;;;;5042195;28;20570;-73
2022/01/18 10:39:55;;;;;;;13.13;3.63;;;3.30;99.90;;;;;;5039167;28;20226;-72
2022/01/18 10:42:47;;;;;;;11.17;3.13;;;3.30;99.90;;;;;;5040381;28;20239;-72
2022/01/18 10:45:38;;;;;;;10.60;3.40;;;3.10;99.90;;;;;;5054595;28;20216;-76
2022/01/18 10:48:26;;;;;;;11.97;3.63;;;3.20;99.90;;;;;;5055871;28;20221;-73
2022/01/18 10:51:28;;;;;;;8.03;3.27;;;3.20;99.90;;;;;;5055355;28;20215;-73
2022/01/18 10:54:17;;;;;;;10.67;3.40;;;3.30;99.90;;;;;;5055502;28;20238;-75
2022/01/18 10:57:11;;;;;;;11.40;3.67;;;3.30;99.90;;;;;;5049867;28;20324;-72
2022/01/18 11:00:07;;;;;;;11.90;4.07;;;3.30;99.90;;;;;;5043755;28;20842;-80
2022/01/18 11:02:56;;;;;;;12.57;4.20;;;3.40;99.90;;;;;;5060144;28;20228;-81
2022/01/18 11:05:46;;;;;;;12.47;4.37;;;3.50;99.90;;;;;;5039080;28;21041;-78
2022/01/18 11:08:35;;;;;;;8.07;3.53;;;3.50;99.90;;;;;;5034305;28;20296;-82
2022/01/18 11:11:27;;;;;;;12.10;3.90;;;3.50;99.90;;;;;;5058529;28;20247;-81
2022/01/18 11:14:21;;;;;;;9.50;2.90;;;3.50;99.90;;;;;;5057474;28;20755;-79
2022/01/18 11:17:14;;;;;;;12.53;4.70;;;3.50;99.90;;;;;;5044770;28;20213;-81
2022/01/18 11:20:05;;;;;;;19.00;7.07;;;3.40;99.90;;;;;;5046030;28;20213;-77
2022/01/18 11:22:53;;;;;;;19.57;8.30;;;3.50;99.90;;;;;;5048411;28;20220;-80
2022/01/18 11:25:43;;;;;;;22.37;8.23;;;3.50;99.90;;;;;;5051317;28;20227;-78
2022/01/18 11:28:34;;;;;;;10.73;4.40;;;3.50;99.90;;;;;;5058792;28;20794;-80
2022/01/18 11:31:24;;;;;;;12.40;3.63;;;3.60;99.90;;;;;;5060917;28;20239;-80
2022/01/18 11:34:22;;;;;;;9.43;3.80;;;3.60;99.90;;;;;;5056192;28;20224;-79
2022/01/18 11:37:17;;;;;;;10.93;3.60;;;3.70;99.90;;;;;;5050530;28;20220;-80
2022/01/18 11:40:14;;;;;;;9.40;4.27;;;3.70;99.90;;;;;;5048795;28;20307;-79
2022/01/18 11:43:02;;;;;;;12.57;4.60;;;3.70;99.90;;;;;;5043293;28;20221;-79
2022/01/18 11:45:51;;;;;;;10.73;4.23;;;3.80;99.90;;;;;;5063224;28;20876;-75
2022/01/18 11:48:49;;;;;;;10.50;3.70;;;4.00;99.90;;;;;;5079296;28;20222;-79
2022/01/18 11:51:43;;;;;;;10.50;3.77;;;4.30;99.90;;;;;;5066752;28;20427;-79
2022/01/18 11:54:41;;;;;;;12.57;4.13;;;4.10;99.90;;;;;;5043524;28;20234;-79
2022/01/18 11:57:37;;;;;;;11.37;3.93;;;4.50;99.90;;;;;;5056799;28;20316;-76
2022/01/18 12:00:27;;;;;;;13.13;4.40;;;4.20;99.90;;;;;;5056088;28;20217;-78
2022/01/18 12:03:23;;;;;;;10.17;3.83;;;4.00;99.90;;;;;;5044963;28;20318;-76
2022/01/18 12:06:13;;;;;;;7.37;3.80;;;3.90;99.90;;;;;;5039932;28;20236;-76
2022/01/18 12:09:02;;;;;;;11.40;3.70;;;3.90;99.90;;;;;;5043992;28;20232;-78
2022/01/18 12:11:51;;;;;;;11.50;5.00;;;3.90;99.90;;;;;;5040920;28;20354;-78
2022/01/18 12:14:43;;;;;;;14.10;5.00;;;3.90;99.90;;;;;;5047636;28;20731;-77
2022/01/18 12:17:46;;;;;;;12.70;4.33;;;3.90;99.90;;;;;;5061595;28;20228;-78
2022/01/18 12:20:47;;;;;;;9.63;3.83;;;4.00;99.90;;;;;;5057621;28;20216;-77
2022/01/18 12:23:44;;;;;;;9.37;3.70;;;4.00;99.90;;;;;;5051387;28;20226;-77
2022/01/18 12:26:38;;;;;;;11.97;3.93;;;4.10;99.90;;;;;;5057121;28;20253;-76
2022/01/18 12:35:39;;;;;;;6.63;2.70;;;4.00;99.90;;;;;;5055489;28;20366;-74
2022/01/18 12:38:27;;;;;;;7.97;3.07;;;4.00;99.90;;;;;;5056210;28;20301;-75
2022/01/18 12:44:22;;;;;;;9.80;3.90;;;3.90;99.90;;;;;;5099125;27;22502;-71
2022/01/18 12:47:11;;;;;;;12.97;4.17;;;3.90;99.90;;;;;;5077660;28;20228;-75
2022/01/18 12:50:05;;;;;;;10.20;4.00;;;4.00;99.90;;;;;;5085397;28;20221;-75
2022/01/18 12:52:57;;;;;;;11.03;3.30;;;4.00;99.90;;;;;;5068189;28;20975;-74
2022/01/18 12:55:47;;;;;;;17.03;4.03;;;4.10;99.90;;;;;;5088987;28;20221;-74
2022/01/18 12:58:38;;;;;;;11.93;3.53;;;4.00;99.90;;;;;;5082238;28;20224;-75
2022/01/18 13:01:30;;;;;;;12.70;4.60;;;4.10;99.90;;;;;;5068878;28;20224;-74
2022/01/18 13:04:22;;;;;;;8.60;3.93;;;4.20;99.90;;;;;;5066547;28;20212;-74
2022/01/18 13:07:11;;;;;;;11.70;4.77;;;4.20;99.90;;;;;;5079402;28;20757;-74
2022/01/18 13:10:03;;;;;;;11.97;4.57;;;4.20;99.90;;;;;;5073418;28;20217;-74
2022/01/18 13:12:52;;;;;;;11.87;4.83;;;4.10;99.90;;;;;;5076324;28;21148;-74
2022/01/18 13:25:12;;;;;;;11.33;4.23;;;4.00;99.90;;;;;;5055960;28;20966;-74
2022/01/18 13:28:03;;;;;;;10.27;4.50;;;3.90;99.90;;;;;;5074598;28;20221;-75
2022/01/18 13:30:58;;;;;;;11.77;4.40;;;4.00;99.90;;;;;;5061888;28;20226;-73
2022/01/18 13:33:51;;;;;;;14.37;5.63;;;3.90;99.90;;;;;;5081910;28;20220;-74
2022/01/18 13:36:52;;;;;;;11.10;5.00;;;4.00;99.90;;;;;;5082941;28;20239;-75
2022/01/18 13:39:45;;;;;;;11.73;4.70;;;3.90;99.90;;;;;;5094949;28;20216;-73
2022/01/18 13:42:36;;;;;;;10.70;4.67;;;3.90;99.90;;;;;;5094165;28;20233;-73
2022/01/18 13:45:27;;;;;;;11.67;4.30;;;3.90;99.90;;;;;;5095743;28;20246;-74
2022/01/18 13:48:16;;;;;;;11.87;4.50;;;3.90;99.90;;;;;;5076144;28;20233;-74
2022/01/18 13:51:14;;;;;;;11.93;4.30;;;3.90;99.90;;;;;;5081220;28;20219;-72
2022/01/18 13:54:08;;;;;;;13.60;4.60;;;3.90;99.90;;;;;;5075868;28;20216;-74
2022/01/18 13:56:57;;;;;;;12.83;4.80;;;3.90;99.90;;;;;;5080885;28;20225;-74
2022/01/18 13:59:47;;;;;;;12.93;4.50;;;4.10;99.90;;;;;;5068321;28;20218;-76
2022/01/18 14:02:42;;;;;;;10.60;4.90;;;4.10;99.90;;;;;;5075099;28;20232;-76
2022/01/18 14:05:31;;;;;;;10.73;4.80;;;4.10;99.90;;;;;;5061663;28;20261;-76
2022/01/18 14:08:21;;;;;;;13.30;4.73;;;3.90;99.90;;;;;;5067727;28;20375;-76
2022/01/18 14:11:16;;;;;;;11.00;4.80;;;4.00;99.90;;;;;;5082888;28;20224;-78
2022/01/18 14:14:17;;;;;;;12.90;4.60;;;3.90;99.90;;;;;;5066495;28;20850;-76
2022/01/18 14:17:08;;;;;;;8.83;4.60;;;3.90;99.90;;;;;;5063508;28;20228;-76
2022/01/18 14:20:05;;;;;;;12.93;4.47;;;3.90;99.90;;;;;;5069969;28;21487;-75
2022/01/18 14:22:56;;;;;;;11.40;4.53;;;3.80;99.90;;;;;;5051270;28;20686;-77
2022/01/18 14:25:46;;;;;;;14.20;4.73;;;3.80;99.90;;;;;;5061667;28;20217;-77
2022/01/18 14:28:36;;;;;;;13.33;5.57;;;3.80;99.90;;;;;;5044500;28;20231;-77
2022/01/18 14:31:26;;;;;;;15.97;4.97;;;3.80;99.90;;;;;;5048665;28;20221;-74
2022/01/18 14:34:27;;;;;;;10.73;4.07;;;3.80;99.90;;;;;;5043971;28;20221;-73
2022/01/18 14:37:16;;;;;;;12.13;5.43;;;3.70;99.90;;;;;;5060610;28;20296;-74
2022/01/18 14:40:08;;;;;;;14.73;4.90;;;3.70;99.90;;;;;;5044157;28;20226;-74
2022/01/18 14:43:00;;;;;;;14.30;4.80;;;3.60;99.90;;;;;;5046526;28;20229;-76
2022/01/18 14:46:02;;;;;;;12.07;4.37;;;3.60;99.90;;;;;;5060062;28;20305;-78
2022/01/18 14:48:59;;;;;;;10.33;4.40;;;3.60;99.90;;;;;;5063945;28;20241;-75
2022/01/18 14:51:48;;;;;;;12.40;4.83;;;3.50;99.90;;;;;;5047811;28;20226;-74
2022/01/18 14:54:37;;;;;;;13.27;4.90;;;3.50;99.90;;;;;;5081738;28;20546;-78
2022/01/18 14:57:26;;;;;;;12.90;5.30;;;3.50;99.90;;;;;;5073009;28;20228;-79
2022/01/18 15:00:20;;;;;;;15.10;5.00;;;3.50;99.90;;;;;;5067955;28;20221;-81
2022/01/18 15:03:10;;;;;;;11.30;4.43;;;3.50;99.90;;;;;;5071457;28;20239;-86
2022/01/18 15:05:59;;;;;;;9.83;4.17;;;3.30;99.90;;;;;;5075945;28;20224;-85
2022/01/18 15:08:48;;;;;;;12.93;4.77;;;3.30;99.90;;;;;;5076581;28;20704;-83
2022/01/18 15:11:37;;;;;;;13.07;4.73;;;3.30;99.90;;;;;;5068445;28;20303;-85
2022/01/18 15:14:26;;;;;;;14.63;5.20;;;3.30;99.90;;;;;;5077145;28;20224;-85
2022/01/18 15:17:14;;;;;;;15.40;4.60;;;3.30;99.90;;;;;;5073770;28;20226;-85
2022/01/18 15:20:06;;;;;;;10.87;4.27;;;3.20;99.90;;;;;;5080299;28;20223;-85
2022/01/18 15:22:56;;;;;;;14.07;5.00;;;3.20;99.90;;;;;;5083698;28;20220;-85
2022/01/18 15:26:04;;;;;;;17.00;6.13;;;3.20;99.90;;;;;;5071220;28;20208;-84
2022/01/18 15:28:53;;;;;;;15.30;5.27;;;3.10;99.90;;;;;;5082218;28;20300;-82
2022/01/18 15:31:42;;;;;;;14.50;5.20;;;3.10;99.90;;;;;;5062493;28;20217;-82
2022/01/18 15:34:31;;;;;;;13.70;5.73;;;2.90;99.90;;;;;;5072420;28;20861;-82
2022/01/18 15:37:21;;;;;;;13.83;5.40;;;3.00;99.90;;;;;;5051034;28;20224;-77
2022/01/18 15:40:13;;;;;;;13.03;5.00;;;3.00;99.90;;;;;;5025400;28;20804;-78
2022/01/18 15:43:02;;;;;;;16.90;5.27;;;3.00;99.90;;;;;;5057883;28;20518;-79
2022/01/18 15:45:51;;;;;;;13.57;5.33;;;3.00;99.90;;;;;;5046827;28;20262;-77
2022/01/18 15:48:40;;;;;;;15.10;5.37;;;3.00;99.90;;;;;;5061419;28;20228;-78
2022/01/18 15:51:28;;;;;;;14.90;6.27;;;2.90;99.90;;;;;;5041211;28;20665;-80
2022/01/18 15:54:19;;;;;;;17.20;6.60;;;2.80;99.90;;;;;;5050932;28;20228;-81
2022/01/18 15:57:08;;;;;;;14.83;5.60;;;2.90;99.90;;;;;;5063154;28;20231;-77
2022/01/18 15:59:57;;;;;;;13.30;5.20;;;2.90;99.90;;;;;;5004420;28;20224;-80
2022/01/18 16:02:46;;;;;;;13.20;5.80;;;2.90;99.90;;;;;;5042524;28;20221;-77